Time;durP1;ratioP1;P1;durP2;ratioP2;P2;SDS_P1;SDS_P2;PMS_P1;PMS_P2;Temp;Humidity;BMP_temperature;BMP_pressure;BME280_temperature;BME280_humidity;BME280_pressure;Samples;Min_cycle;Max_cycle;Signal;HPM_P1;HPM_P2
2023/07/08 00:00:47;;;;;;;0.10;0.10;;;;;;;-145.06;100.00;63404.56;10351407;28;20074;-79
2023/07/08 00:05:52;;;;;;;0.10;0.10;;;;;;;-145.06;100.00;63404.56;10354241;28;20022;-80
2023/07/08 00:10:52;;;;;;;0.10;0.10;;;;;;;-145.06;100.00;63404.56;10344949;28;20038;-79
2023/07/08 00:15:53;;;;;;;0.10;0.10;;;;;;;-145.06;100.00;63404.56;10358197;28;20061;-79
2023/07/08 00:20:53;;;;;;;0.10;0.10;;;;;;;-145.06;100.00;63404.56;10357673;28;20041;-78
2023/07/08 00:25:54;;;;;;;0.00;0.00;;;;;;;-145.06;100.00;63404.56;10369925;28;20466;-79
2023/07/08 00:30:55;;;;;;;0.10;0.10;;;;;;;-145.06;100.00;63404.56;10340806;28;20505;-79
2023/07/08 00:35:55;;;;;;;0.10;0.10;;;;;;;-145.06;100.00;63404.56;10348106;28;20483;-79
2023/07/08 00:41:01;;;;;;;0.10;0.10;;;;;;;-145.06;100.00;63404.56;10345495;28;20049;-80
2023/07/08 00:46:31;;;;;;;0.10;0.10;;;;;;;-145.06;100.00;63404.56;10339545;28;20081;-79
2023/07/08 00:51:32;;;;;;;0.10;0.10;;;;;;;-145.06;100.00;63404.56;10343706;28;20455;-80
2023/07/08 00:56:42;;;;;;;0.10;0.10;;;;;;;-145.06;100.00;63404.56;10376490;28;20018;-79
2023/07/08 01:01:43;;;;;;;0.10;0.10;;;;;;;-145.06;100.00;63404.56;10378244;28;20044;-79
2023/07/08 01:06:52;;;;;;;0.10;0.10;;;;;;;-145.06;100.00;63404.56;10345681;28;20113;-79
2023/07/08 01:11:55;;;;;;;0.00;0.00;;;;;;;-145.06;100.00;63404.56;10363085;23;20533;-75
2023/07/08 01:16:56;;;;;;;0.10;0.10;;;;;;;-145.06;100.00;63404.56;10314778;28;20415;-75
2023/07/08 01:21:56;;;;;;;0.10;0.10;;;;;;;-145.06;100.00;63404.56;10349782;28;20034;-75
2023/07/08 01:26:57;;;;;;;0.10;0.10;;;;;;;-145.06;100.00;63404.56;10348456;28;20116;-75
2023/07/08 01:32:02;;;;;;;0.10;0.10;;;;;;;-145.06;100.00;63404.56;10342673;28;20398;-75
2023/07/08 01:37:04;;;;;;;0.10;0.10;;;;;;;-145.06;100.00;63404.56;10366905;28;20517;-77
2023/07/08 01:42:05;;;;;;;0.10;0.10;;;;;;;-145.06;100.00;63404.56;10368985;28;20115;-77
2023/07/08 01:47:18;;;;;;;0.10;0.10;;;;;;;-145.06;100.00;63404.56;10363424;28;20108;-76
2023/07/08 01:52:19;;;;;;;0.10;0.10;;;;;;;-145.06;100.00;63404.56;10333413;28;20037;-77
2023/07/08 01:57:19;;;;;;;0.10;0.10;;;;;;;-145.06;100.00;63404.56;10333699;28;20379;-75
2023/07/08 02:02:19;;;;;;;0.10;0.10;;;;;;;-145.06;100.00;63404.56;10368880;28;20502;-75
2023/07/08 02:07:20;;;;;;;0.10;0.10;;;;;;;-145.06;100.00;63404.56;10367702;28;20449;-75
2023/07/08 02:12:20;;;;;;;0.05;0.05;;;;;;;-145.06;100.00;63404.56;10352909;28;20113;-77
2023/07/08 02:17:20;;;;;;;0.10;0.10;;;;;;;-145.06;100.00;63404.56;10303068;28;20030;-75
2023/07/08 02:22:21;;;;;;;0.10;0.10;;;;;;;-145.06;100.00;63404.56;10276777;28;20412;-77
2023/07/08 02:27:21;;;;;;;0.10;0.10;;;;;;;-145.06;100.00;63404.56;10287015;28;20436;-77
2023/07/08 02:32:21;;;;;;;0.10;0.10;;;;;;;-145.06;100.00;63404.56;10287037;28;20038;-75
2023/07/08 02:37:22;;;;;;;0.10;0.10;;;;;;;-145.06;100.00;63404.56;10286876;28;20468;-77
2023/07/08 02:42:22;;;;;;;0.10;0.10;;;;;;;-145.06;100.00;63404.56;10286604;28;20509;-77
2023/07/08 02:47:22;;;;;;;0.10;0.10;;;;;;;-145.06;100.00;63404.56;10292825;28;20026;-77
2023/07/08 02:52:23;;;;;;;0.10;0.10;;;;;;;-145.06;100.00;63404.56;10288272;28;20030;-77
2023/07/08 02:57:23;;;;;;;0.10;0.10;;;;;;;-145.06;100.00;63404.56;10286424;28;20278;-77
2023/07/08 03:02:23;;;;;;;0.00;0.00;;;;;;;-145.06;100.00;63404.56;10287044;28;20042;-77
2023/07/08 03:07:24;;;;;;;0.10;0.10;;;;;;;-145.06;100.00;63404.56;10294000;28;20129;-77
2023/07/08 03:12:24;;;;;;;0.10;0.10;;;;;;;-145.06;100.00;63404.56;10286135;28;20046;-77
2023/07/08 03:17:24;;;;;;;0.10;0.10;;;;;;;-145.06;100.00;63404.56;10295786;28;20513;-77
2023/07/08 03:22:24;;;;;;;0.03;0.03;;;;;;;-145.06;100.00;63404.56;10284607;28;20034;-77
2023/07/08 03:27:25;;;;;;;0.10;0.10;;;;;;;-145.06;100.00;63404.56;10285187;28;20050;-77
2023/07/08 03:32:25;;;;;;;0.10;0.10;;;;;;;-145.06;100.00;63404.56;10286164;28;20078;-77
2023/07/08 03:37:25;;;;;;;0.10;0.10;;;;;;;-145.06;100.00;63404.56;10285318;28;20027;-75
2023/07/08 03:42:26;;;;;;;0.10;0.10;;;;;;;-145.06;100.00;63404.56;10285923;28;20411;-75
2023/07/08 03:47:26;;;;;;;0.10;0.10;;;;;;;-145.06;100.00;63404.56;10297012;28;20066;-75
2023/07/08 03:52:26;;;;;;;0.10;0.10;;;;;;;-145.06;100.00;63404.56;10309853;28;20030;-75
2023/07/08 03:57:27;;;;;;;0.10;0.10;;;;;;;-145.06;100.00;63404.56;10302116;28;20411;-76
2023/07/08 04:02:27;;;;;;;0.10;0.10;;;;;;;-145.06;100.00;63404.56;10293803;28;20031;-76
2023/07/08 04:07:27;;;;;;;0.10;0.10;;;;;;;-145.06;100.00;63404.56;10275562;28;20416;-76
2023/07/08 04:12:27;;;;;;;0.20;0.20;;;;;;;-145.06;100.00;63404.56;10292974;28;20039;-76
2023/07/08 04:17:28;;;;;;;0.00;0.00;;;;;;;-145.06;100.00;63404.56;10299725;28;20026;-76
2023/07/08 04:22:28;;;;;;;0.10;0.10;;;;;;;-145.06;100.00;63404.56;10293739;28;20038;-76
2023/07/08 04:27:28;;;;;;;0.00;0.00;;;;;;;-145.06;100.00;63404.56;10291857;28;20030;-76
2023/07/08 04:32:29;;;;;;;0.00;0.00;;;;;;;-145.06;100.00;63404.56;10291749;28;20034;-76
2023/07/08 04:37:29;;;;;;;0.10;0.10;;;;;;;-145.06;100.00;63404.56;10292335;28;20042;-76
2023/07/08 04:42:29;;;;;;;0.00;0.00;;;;;;;-145.06;100.00;63404.56;10314258;28;20034;-76
2023/07/08 04:47:29;;;;;;;0.10;0.10;;;;;;;-145.06;100.00;63404.56;10323268;28;20058;-76
2023/07/08 04:52:30;;;;;;;0.00;0.00;;;;;;;-145.06;100.00;63404.56;10329605;28;20589;-77
2023/07/08 04:57:30;;;;;;;0.00;0.00;;;;;;;-145.06;100.00;63404.56;10330350;28;20027;-77
2023/07/08 05:02:30;;;;;;;0.00;0.00;;;;;;;-145.06;100.00;63404.56;10330738;28;20108;-77
2023/07/08 05:07:30;;;;;;;0.10;0.10;;;;;;;-145.06;100.00;63404.56;10329851;28;20030;-77
2023/07/08 05:12:31;;;;;;;0.05;0.05;;;;;;;-145.06;100.00;63404.56;10347227;28;20029;-76
2023/07/08 05:17:31;;;;;;;0.00;0.00;;;;;;;-145.06;100.00;63404.56;10357203;28;20506;-76
2023/07/08 05:22:31;;;;;;;0.10;0.10;;;;;;;-145.06;100.00;63404.56;10312373;28;20092;-77
2023/07/08 05:27:35;;;;;;;0.10;0.10;;;;;;;-145.06;100.00;63404.56;10360929;28;20026;-76
2023/07/08 05:32:35;;;;;;;0.00;0.00;;;;;;;-145.06;100.00;63404.56;10312481;28;20034;-76
2023/07/08 05:37:35;;;;;;;0.00;0.00;;;;;;;-145.06;100.00;63404.56;10329230;28;20030;-76
2023/07/08 05:42:36;;;;;;;0.10;0.10;;;;;;;-145.06;100.00;63404.56;10329508;28;20041;-76
2023/07/08 05:47:37;;;;;;;0.00;0.00;;;;;;;-145.06;100.00;63404.56;10342743;28;20104;-77
2023/07/08 05:52:37;;;;;;;0.10;0.10;;;;;;;-145.06;100.00;63404.56;10329547;28;20082;-77
2023/07/08 05:57:38;;;;;;;0.00;0.00;;;;;;;-145.06;100.00;63404.56;10328203;28;20101;-77
2023/07/08 06:02:38;;;;;;;0.03;0.03;;;;;;;-145.06;100.00;63404.56;10330992;28;20026;-76
2023/07/08 06:07:38;;;;;;;0.10;0.10;;;;;;;-145.06;100.00;63404.56;10367875;28;20029;-77
2023/07/08 06:12:39;;;;;;;0.00;0.00;;;;;;;-145.06;100.00;63404.56;10323847;28;20092;-76
2023/07/08 06:17:39;;;;;;;0.10;0.10;;;;;;;-145.06;100.00;63404.56;10295271;28;20125;-77
2023/07/08 06:22:39;;;;;;;0.00;0.00;;;;;;;-145.06;100.00;63404.56;10300062;28;20039;-77
2023/07/08 06:27:40;;;;;;;0.00;0.00;;;;;;;-145.06;100.00;63404.56;10324538;28;20455;-77
2023/07/08 06:32:40;;;;;;;0.10;0.10;;;;;;;-145.06;100.00;63404.56;10327216;28;20050;-77
2023/07/08 06:37:40;;;;;;;0.00;0.00;;;;;;;-145.06;100.00;63404.56;10327107;28;20026;-77
2023/07/08 06:42:41;;;;;;;0.00;0.00;;;;;;;-145.06;100.00;63404.56;10327332;28;20027;-77
2023/07/08 06:47:41;;;;;;;0.10;0.10;;;;;;;-145.06;100.00;63404.56;10316958;28;20030;-77
2023/07/08 06:52:41;;;;;;;0.10;0.10;;;;;;;-145.06;100.00;63404.56;10288462;28;20117;-77
2023/07/08 06:57:42;;;;;;;0.03;0.03;;;;;;;-145.06;100.00;63404.56;10300699;28;20535;-77
2023/07/08 07:02:43;;;;;;;0.00;0.00;;;;;;;-145.06;100.00;63404.56;10274861;28;20129;-77
2023/07/08 07:07:43;;;;;;;0.10;0.10;;;;;;;-145.06;100.00;63404.56;10286697;28;20457;-77
2023/07/08 07:12:43;;;;;;;0.20;0.20;;;;;;;-145.06;100.00;63404.56;10287083;28;20038;-77
2023/07/08 07:17:44;;;;;;;0.10;0.10;;;;;;;-145.06;100.00;63404.56;10300868;28;20041;-77
2023/07/08 07:22:45;;;;;;;0.10;0.10;;;;;;;-145.06;100.00;63404.56;10269992;28;20118;-77
2023/07/08 07:27:45;;;;;;;0.10;0.10;;;;;;;-145.06;100.00;63404.56;10286651;28;20630;-77
2023/07/08 07:32:46;;;;;;;0.00;0.00;;;;;;;-145.06;100.00;63404.56;10290318;28;20444;-77
2023/07/08 07:37:46;;;;;;;0.10;0.10;;;;;;;-145.06;100.00;63404.56;10276881;28;20042;-77
2023/07/08 07:42:46;;;;;;;0.10;0.10;;;;;;;-145.06;100.00;63404.56;10303602;28;20109;-78
2023/07/08 07:47:47;;;;;;;0.00;0.00;;;;;;;-145.06;100.00;63404.56;10309932;28;20074;-77
2023/07/08 07:52:47;;;;;;;0.10;0.10;;;;;;;-145.06;100.00;63404.56;10295955;28;20054;-77
2023/07/08 07:57:47;;;;;;;0.00;0.00;;;;;;;-145.06;100.00;63404.56;10295996;28;20042;-77
2023/07/08 08:02:48;;;;;;;0.00;0.00;;;;;;;-145.06;100.00;63404.56;10294385;28;20054;-77
2023/07/08 08:07:48;;;;;;;0.10;0.10;;;;;;;-145.06;100.00;63404.56;10295134;28;20026;-77
2023/07/08 08:12:50;;;;;;;0.03;0.03;;;;;;;-145.06;100.00;63404.56;10298963;28;20583;-77
2023/07/08 08:17:51;;;;;;;0.08;0.08;;;;;;;-145.06;100.00;63404.56;10304390;28;20059;-77
2023/07/08 08:22:52;;;;;;;0.08;0.08;;;;;;;-145.06;100.00;63404.56;10297138;28;20359;-77
2023/07/08 08:27:52;;;;;;;0.10;0.10;;;;;;;-145.06;100.00;63404.56;10295347;28;20045;-77
2023/07/08 08:32:52;;;;;;;0.10;0.10;;;;;;;-145.06;100.00;63404.56;10278561;28;20030;-77
2023/07/08 08:37:56;;;;;;;0.00;0.00;;;;;;;-145.06;100.00;63404.56;10275474;28;20537;-77
2023/07/08 08:43:05;;;;;;;0.10;0.10;;;;;;;-145.06;100.00;63404.56;10292558;28;20030;-77
2023/07/08 08:48:11;;;;;;;0.10;0.10;;;;;;;-145.06;100.00;63404.56;10299976;28;20042;-77
2023/07/08 08:53:13;;;;;;;0.00;0.00;;;;;;;-145.06;100.00;63404.56;10333471;28;20042;-77
2023/07/08 08:58:41;;;;;;;0.00;0.00;;;;;;;-145.06;100.00;63404.56;10315698;28;20034;-77
2023/07/08 09:03:50;;;;;;;0.10;0.10;;;;;;;-145.06;100.00;63404.56;10333354;28;20118;-77
2023/07/08 09:08:52;;;;;;;0.10;0.10;;;;;;;-145.06;100.00;63404.56;10332955;28;20038;-77
2023/07/08 09:13:54;;;;;;;0.10;0.10;;;;;;;-145.06;100.00;63404.56;10361123;28;20038;-77
2023/07/08 09:19:00;;;;;;;0.10;0.10;;;;;;;-145.06;100.00;63404.56;10336972;28;20062;-77
2023/07/08 09:24:07;;;;;;;0.00;0.00;;;;;;;-145.06;100.00;63404.56;10372255;28;20060;-77
2023/07/08 09:29:09;;;;;;;0.10;0.10;;;;;;;-145.06;100.00;63404.56;10332627;28;20046;-77
2023/07/08 09:34:14;;;;;;;;;;;;;;;-145.06;100.00;63404.56;10330703;28;20026;-77
2023/07/08 09:39:20;;;;;;;0.00;0.00;;;;;;;-145.06;100.00;63404.56;10331453;28;19910;-77
2023/07/08 09:44:28;;;;;;;0.08;0.08;;;;;;;-145.06;100.00;63404.56;10329853;28;20050;-77
2023/07/08 09:49:35;;;;;;;0.00;0.00;;;;;;;-145.06;100.00;63404.56;10342740;28;20508;-77
2023/07/08 09:54:35;;;;;;;0.00;0.00;;;;;;;-145.06;100.00;63404.56;10329737;28;20034;-77
2023/07/08 09:59:46;;;;;;;0.10;0.10;;;;;;;-145.06;100.00;63404.56;10331330;28;20041;-77
2023/07/08 10:04:46;;;;;;;0.10;0.10;;;;;;;-145.06;100.00;63404.56;10359809;28;20041;-77
2023/07/08 10:09:56;;;;;;;0.00;0.00;;;;;;;-145.06;100.00;63404.56;10334104;28;20352;-77
2023/07/08 10:15:02;;;;;;;0.00;0.00;;;;;;;-145.06;100.00;63404.56;10295355;28;20492;-77
2023/07/08 10:20:10;;;;;;;0.10;0.10;;;;;;;-145.06;100.00;63404.56;10298891;28;20042;-77
2023/07/08 10:25:31;;;;;;;0.10;0.10;;;;;;;-145.06;100.00;63404.56;10295301;28;20133;-77
2023/07/08 10:30:56;;;;;;;0.00;0.00;;;;;;;-145.06;100.00;63404.56;10334622;28;20029;-77
2023/07/08 10:36:17;;;;;;;0.10;0.10;;;;;;;-145.06;100.00;63404.56;10338175;28;20302;-77
2023/07/08 10:41:45;;;;;;;0.00;0.00;;;;;;;-145.06;100.00;63404.56;10337622;28;20065;-78
2023/07/08 10:47:22;;;;;;;0.05;0.05;;;;;;;-145.06;100.00;63404.56;10335433;28;20624;-78
2023/07/08 10:52:55;;;;;;;0.10;0.10;;;;;;;-145.06;100.00;63404.56;10307006;28;20488;-77
2023/07/08 10:58:23;;;;;;;0.10;0.10;;;;;;;-145.06;100.00;63404.56;10335776;28;20046;-77
2023/07/08 11:03:36;;;;;;;0.00;0.00;;;;;;;-145.06;100.00;63404.56;10338659;28;20227;-78
2023/07/08 11:08:44;;;;;;;0.00;0.00;;;;;;;-145.06;100.00;63404.56;10343861;28;20039;-78
2023/07/08 11:13:58;;;;;;;0.10;0.10;;;;;;;-145.06;100.00;63404.56;10327409;28;20034;-77
2023/07/08 11:19:14;;;;;;;0.00;0.00;;;;;;;-145.06;100.00;63404.56;10328809;28;20043;-77
2023/07/08 11:24:21;;;;;;;0.00;0.00;;;;;;;-145.06;100.00;63404.56;10346848;28;20038;-77
2023/07/08 11:29:54;;;;;;;0.00;0.00;;;;;;;-145.06;100.00;63404.56;10346346;28;20037;-77
2023/07/08 11:34:57;;;;;;;0.00;0.00;;;;;;;-145.06;100.00;63404.56;10323306;28;20038;-77
2023/07/08 11:40:05;;;;;;;0.00;0.00;;;;;;;-145.06;100.00;63404.56;10328675;28;20504;-77
2023/07/08 11:45:23;;;;;;;0.03;0.03;;;;;;;-145.06;100.00;63404.56;10345263;28;20029;-78
2023/07/08 11:50:36;;;;;;;0.00;0.00;;;;;;;-145.06;100.00;63404.56;10317770;28;20134;-78
2023/07/08 11:56:04;;;;;;;0.10;0.10;;;;;;;-145.06;100.00;63404.56;10304995;28;20030;-77
2023/07/08 12:01:10;;;;;;;0.00;0.00;;;;;;;-145.06;100.00;63404.56;10323027;28;20112;-77
2023/07/08 12:06:25;;;;;;;0.10;0.10;;;;;;;-145.06;100.00;63404.56;10344919;28;20084;-77
2023/07/08 12:11:35;;;;;;;0.10;0.10;;;;;;;-145.06;100.00;63404.56;10353114;28;20426;-77
2023/07/08 12:16:35;;;;;;;0.10;0.10;;;;;;;-145.06;100.00;63404.56;10362045;28;20030;-77
2023/07/08 12:21:36;;;;;;;0.00;0.00;;;;;;;-145.06;100.00;63404.56;10361321;28;20073;-77
2023/07/08 12:26:36;;;;;;;0.10;0.10;;;;;;;-145.06;100.00;63404.56;10366305;28;20292;-77
2023/07/08 12:31:37;;;;;;;0.00;0.00;;;;;;;-145.06;100.00;63404.56;10388147;28;20034;-77
2023/07/08 12:36:38;;;;;;;0.00;0.00;;;;;;;-145.06;100.00;63404.56;10386374;28;20048;-77
2023/07/08 12:41:39;;;;;;;0.10;0.10;;;;;;;-145.06;100.00;63404.56;10387922;28;20120;-77
2023/07/08 12:46:39;;;;;;;0.10;0.10;;;;;;;-145.06;100.00;63404.56;10364004;28;20030;-77
2023/07/08 12:51:42;;;;;;;0.00;0.00;;;;;;;-145.06;100.00;63404.56;10351346;28;20092;-77
2023/07/08 12:56:45;;;;;;;0.00;0.00;;;;;;;-145.06;100.00;63404.56;10326867;28;20026;-77
2023/07/08 13:01:47;;;;;;;0.10;0.10;;;;;;;-145.06;100.00;63404.56;10343782;28;20391;-77
2023/07/08 13:06:48;;;;;;;0.00;0.00;;;;;;;-145.06;100.00;63404.56;10342643;28;20063;-77
2023/07/08 13:11:52;;;;;;;0.00;0.00;;;;;;;-145.06;100.00;63404.56;10385300;23;20052;-81
2023/07/08 13:16:53;;;;;;;0.00;0.00;;;;;;;-145.06;100.00;63404.56;10430971;28;20056;-78
2023/07/08 13:21:53;;;;;;;0.10;0.10;;;;;;;-145.06;100.00;63404.56;10425980;28;20038;-79
2023/07/08 13:26:55;;;;;;;0.10;0.10;;;;;;;-145.06;100.00;63404.56;10425487;28;20044;-80
2023/07/08 13:32:02;;;;;;;0.00;0.00;;;;;;;-145.06;100.00;63404.56;10420043;28;20045;-79
2023/07/08 13:37:02;;;;;;;0.00;0.00;;;;;;;-145.06;100.00;63404.56;10437801;28;20108;-80
2023/07/08 13:42:04;;;;;;;0.00;0.00;;;;;;;-145.06;100.00;63404.56;10417284;28;20120;-81
2023/07/08 13:47:37;;;;;;;0.10;0.10;;;;;;;-145.06;100.00;63404.56;10408608;28;20079;-81
2023/07/08 13:52:37;;;;;;;0.10;0.10;;;;;;;-145.06;100.00;63404.56;10432033;28;20044;-80
2023/07/08 13:57:39;;;;;;;0.10;0.10;;;;;;;-145.06;100.00;63404.56;10423281;28;20113;-78
2023/07/08 14:02:43;;;;;;;0.10;0.10;;;;;;;-145.06;100.00;63404.56;10406881;28;20044;-81
2023/07/08 14:07:44;;;;;;;0.00;0.00;;;;;;;-145.06;100.00;63404.56;10420775;28;21999;-79
2023/07/08 14:12:45;;;;;;;0.10;0.10;;;;;;;-145.06;100.00;63404.56;10415005;28;20120;-79
2023/07/08 14:17:45;;;;;;;0.00;0.00;;;;;;;-145.06;100.00;63404.56;10436041;28;20527;-79
2023/07/08 14:22:45;;;;;;;0.00;0.00;;;;;;;-145.06;100.00;63404.56;10425426;28;20034;-78
2023/07/08 14:27:46;;;;;;;0.00;0.00;;;;;;;-145.06;100.00;63404.56;10418339;28;20120;-77
2023/07/08 14:32:46;;;;;;;0.10;0.10;;;;;;;-145.06;100.00;63404.56;10421709;28;20037;-81
2023/07/08 14:37:47;;;;;;;0.00;0.00;;;;;;;-145.06;100.00;63404.56;10414961;28;20394;-81
2023/07/08 14:42:47;;;;;;;0.10;0.10;;;;;;;-145.06;100.00;63404.56;10405267;28;20037;-81
2023/07/08 14:47:48;;;;;;;0.00;0.00;;;;;;;-145.06;100.00;63404.56;10422827;28;20115;-80
2023/07/08 14:52:48;;;;;;;0.10;0.10;;;;;;;-145.06;100.00;63404.56;10423691;28;20352;-80
2023/07/08 14:57:48;;;;;;;0.10;0.10;;;;;;;-145.06;100.00;63404.56;10415053;28;20029;-78
2023/07/08 15:02:51;;;;;;;0.00;0.00;;;;;;;-145.06;100.00;63404.56;10401685;28;20037;-80
2023/07/08 15:07:54;;;;;;;0.10;0.10;;;;;;;-145.06;100.00;63404.56;10398182;28;20029;-79
2023/07/08 15:12:56;;;;;;;0.10;0.10;;;;;;;-145.06;100.00;63404.56;10415218;28;20449;-79
2023/07/08 15:17:57;;;;;;;0.00;0.00;;;;;;;-145.06;100.00;63404.56;10415776;28;20375;-79
2023/07/08 15:22:58;;;;;;;0.00;0.00;;;;;;;-145.06;100.00;63404.56;10419881;28;20112;-80
2023/07/08 15:27:58;;;;;;;0.10;0.10;;;;;;;-145.06;100.00;63404.56;10398062;28;20102;-79
2023/07/08 15:32:58;;;;;;;0.00;0.00;;;;;;;-145.06;100.00;63404.56;10396098;28;20120;-80
2023/07/08 15:38:03;;;;;;;0.10;0.10;;;;;;;-145.06;100.00;63404.56;10420701;28;20073;-80
2023/07/08 15:43:05;;;;;;;0.00;0.00;;;;;;;-145.06;100.00;63404.56;10413111;28;20034;-80
2023/07/08 15:48:12;;;;;;;0.10;0.10;;;;;;;-145.06;100.00;63404.56;10415729;28;20113;-80
2023/07/08 15:53:16;;;;;;;0.10;0.10;;;;;;;-145.06;100.00;63404.56;10420284;28;20397;-80
2023/07/08 15:58:34;;;;;;;0.10;0.10;;;;;;;-145.06;100.00;63404.56;10423165;28;20566;-78
2023/07/08 16:03:36;;;;;;;0.00;0.00;;;;;;;-145.06;100.00;63404.56;10422351;28;20028;-79
2023/07/08 16:08:38;;;;;;;0.00;0.00;;;;;;;-145.06;100.00;63404.56;10431227;28;20191;-77
2023/07/08 16:13:40;;;;;;;0.10;0.10;;;;;;;-145.06;100.00;63404.56;10402151;28;20482;-79
2023/07/08 16:18:40;;;;;;;0.10;0.10;;;;;;;-145.06;100.00;63404.56;10423984;28;20090;-79
2023/07/08 16:23:40;;;;;;;0.10;0.10;;;;;;;-145.06;100.00;63404.56;10419821;28;20048;-79
2023/07/08 16:28:46;;;;;;;0.10;0.10;;;;;;;-145.06;100.00;63404.56;10419682;28;20030;-78
2023/07/08 16:33:48;;;;;;;0.00;0.00;;;;;;;-145.06;100.00;63404.56;10430934;28;20440;-79
2023/07/08 16:38:49;;;;;;;0.00;0.00;;;;;;;-145.06;100.00;63404.56;10418750;28;20108;-77
2023/07/08 16:43:52;;;;;;;0.10;0.10;;;;;;;-145.06;100.00;63404.56;10413814;28;20468;-79
2023/07/08 16:48:53;;;;;;;0.00;0.00;;;;;;;-145.06;100.00;63404.56;10422870;28;20096;-78
2023/07/08 16:54:17;;;;;;;0.10;0.10;;;;;;;-145.06;100.00;63404.56;10418022;28;20091;-80
2023/07/08 16:59:18;;;;;;;0.10;0.10;;;;;;;-145.06;100.00;63404.56;10417677;28;20017;-80
2023/07/08 17:04:18;;;;;;;0.00;0.00;;;;;;;-145.06;100.00;63404.56;10417170;28;20025;-79
2023/07/08 17:09:19;;;;;;;0.00;0.00;;;;;;;-145.06;100.00;63404.56;10412018;28;20039;-78
2023/07/08 17:14:19;;;;;;;0.10;0.10;;;;;;;-145.06;100.00;63404.56;10458035;28;20118;-80
2023/07/08 17:19:19;;;;;;;0.00;0.00;;;;;;;-145.06;100.00;63404.56;10422406;28;20033;-80
2023/07/08 17:24:21;;;;;;;0.00;0.00;;;;;;;-145.06;100.00;63404.56;10415695;28;20028;-77
2023/07/08 17:29:22;;;;;;;;;;;;;;;-145.06;100.00;63404.56;10416146;28;20112;-78
2023/07/08 17:34:25;;;;;;;0.00;0.00;;;;;;;-145.06;100.00;63404.56;10444937;28;20011;-78
2023/07/08 17:39:25;;;;;;;0.00;0.00;;;;;;;-145.06;100.00;63404.56;10457429;28;20040;-78
2023/07/08 17:44:25;;;;;;;0.00;0.00;;;;;;;-145.06;100.00;63404.56;10455292;28;20067;-78
2023/07/08 17:49:26;;;;;;;0.00;0.00;;;;;;;-145.06;100.00;63404.56;10441116;28;20032;-79
2023/07/08 17:54:30;;;;;;;0.00;0.00;;;;;;;-145.06;100.00;63404.56;10454902;28;20045;-78
2023/07/08 17:59:31;;;;;;;0.00;0.00;;;;;;;-145.06;100.00;63404.56;10454468;28;20017;-79
2023/07/08 18:04:31;;;;;;;0.00;0.00;;;;;;;-145.06;100.00;63404.56;10403838;28;20532;-79
2023/07/08 18:09:31;;;;;;;0.00;0.00;;;;;;;-145.06;100.00;63404.56;10432907;28;20028;-78
2023/07/08 18:14:32;;;;;;;0.00;0.00;;;;;;;-145.06;100.00;63404.56;10447336;28;20379;-79
2023/07/08 18:19:32;;;;;;;0.00;0.00;;;;;;;-145.06;100.00;63404.56;10417241;28;20517;-78
2023/07/08 18:24:32;;;;;;;0.00;0.00;;;;;;;-145.06;100.00;63404.56;10394693;28;20029;-79
2023/07/08 18:29:32;;;;;;;0.00;0.00;;;;;;;-145.06;100.00;63404.56;10412524;28;20022;-78
2023/07/08 18:34:33;;;;;;;0.00;0.00;;;;;;;-145.06;100.00;63404.56;10448787;28;20040;-77
2023/07/08 18:39:33;;;;;;;0.00;0.00;;;;;;;-145.06;100.00;63404.56;10436203;28;20493;-76
2023/07/08 18:44:36;;;;;;;0.00;0.00;;;;;;;-145.06;100.00;63404.56;10453599;28;20021;-77
2023/07/08 18:49:36;;;;;;;0.00;0.00;;;;;;;-145.06;100.00;63404.56;10428138;28;20520;-78
2023/07/08 18:54:36;;;;;;;0.00;0.00;;;;;;;-145.06;100.00;63404.56;10412751;28;20036;-78
2023/07/08 18:59:39;;;;;;;0.10;0.10;;;;;;;-145.06;100.00;63404.56;10412605;28;20037;-77
2023/07/08 19:04:39;;;;;;;0.00;0.00;;;;;;;-145.06;100.00;63404.56;10426367;28;20032;-78
2023/07/08 19:09:39;;;;;;;0.00;0.00;;;;;;;-145.06;100.00;63404.56;10414661;28;20113;-77
2023/07/08 19:14:39;;;;;;;0.00;0.00;;;;;;;-145.06;100.00;63404.56;10388999;22;20491;-75
2023/07/08 19:19:40;;;;;;;0.00;0.00;;;;;;;-145.06;100.00;63404.56;10303492;28;20058;-76
2023/07/08 19:24:40;;;;;;;0.10;0.10;;;;;;;-145.06;100.00;63404.56;10296720;28;20437;-76
2023/07/08 19:29:41;;;;;;;0.00;0.00;;;;;;;-145.06;100.00;63404.56;10304463;28;20026;-77
2023/07/08 19:34:43;;;;;;;0.10;0.10;;;;;;;-145.06;100.00;63404.56;10310286;28;20368;-77
2023/07/08 19:39:44;;;;;;;0.00;0.00;;;;;;;-145.06;100.00;63404.56;10308525;28;20058;-77
2023/07/08 19:44:44;;;;;;;0.00;0.00;;;;;;;-145.06;100.00;63404.56;10313166;28;20034;-76
2023/07/08 19:49:44;;;;;;;0.00;0.00;;;;;;;-145.06;100.00;63404.56;10301030;28;20035;-76
2023/07/08 19:54:45;;;;;;;0.00;0.00;;;;;;;-145.06;100.00;63404.56;10311379;28;20037;-77
2023/07/08 19:59:46;;;;;;;0.00;0.00;;;;;;;-145.06;100.00;63404.56;10310873;28;20049;-77
2023/07/08 20:04:47;;;;;;;0.00;0.00;;;;;;;-145.06;100.00;63404.56;10319490;28;20114;-76
2023/07/08 20:09:48;;;;;;;0.00;0.00;;;;;;;-145.06;100.00;63404.56;10322625;28;20448;-76
2023/07/08 20:14:48;;;;;;;0.10;0.10;;;;;;;-145.06;100.00;63404.56;10303952;28;20086;-76
2023/07/08 20:19:48;;;;;;;0.10;0.10;;;;;;;-145.06;100.00;63404.56;10302166;28;20499;-76
2023/07/08 20:24:49;;;;;;;0.00;0.00;;;;;;;-145.06;100.00;63404.56;10312390;28;20466;-76
2023/07/08 20:29:49;;;;;;;0.03;0.03;;;;;;;-145.06;100.00;63404.56;10312111;28;20081;-76
2023/07/08 20:34:49;;;;;;;0.00;0.00;;;;;;;-145.06;100.00;63404.56;10317209;28;20448;-77
2023/07/08 20:39:50;;;;;;;0.00;0.00;;;;;;;-145.06;100.00;63404.56;10281226;28;20289;-77
2023/07/08 20:44:50;;;;;;;0.00;0.00;;;;;;;-145.06;100.00;63404.56;10307113;28;20031;-77
2023/07/08 20:49:50;;;;;;;0.00;0.00;;;;;;;-145.06;100.00;63404.56;10311596;28;20030;-77
2023/07/08 20:54:51;;;;;;;0.10;0.10;;;;;;;-145.06;100.00;63404.56;10288582;28;20039;-77
2023/07/08 20:59:51;;;;;;;0.10;0.10;;;;;;;-145.06;100.00;63404.56;10288452;28;20046;-77
2023/07/08 21:04:52;;;;;;;0.00;0.00;;;;;;;-145.06;100.00;63404.56;10306365;28;20049;-77
2023/07/08 21:09:52;;;;;;;0.00;0.00;;;;;;;-145.06;100.00;63404.56;10302747;28;20406;-78
2023/07/08 21:14:52;;;;;;;0.10;0.10;;;;;;;-145.06;100.00;63404.56;10303417;28;20058;-77
2023/07/08 21:19:53;;;;;;;0.00;0.00;;;;;;;-145.06;100.00;63404.56;10298865;28;20038;-77
2023/07/08 21:24:53;;;;;;;0.00;0.00;;;;;;;-145.06;100.00;63404.56;10289470;28;20066;-77
2023/07/08 21:29:53;;;;;;;0.10;0.10;;;;;;;-145.06;100.00;63404.56;10299814;28;20097;-77
2023/07/08 21:34:54;;;;;;;0.00;0.00;;;;;;;-145.06;100.00;63404.56;10300423;28;20049;-77
2023/07/08 21:39:54;;;;;;;0.00;0.00;;;;;;;-145.06;100.00;63404.56;10288852;28;20082;-77
2023/07/08 21:44:54;;;;;;;0.10;0.10;;;;;;;-145.06;100.00;63404.56;10294971;28;20113;-76
2023/07/08 21:49:55;;;;;;;0.10;0.10;;;;;;;-145.06;100.00;63404.56;10279118;28;20414;-77
2023/07/08 21:54:55;;;;;;;0.10;0.10;;;;;;;-145.06;100.00;63404.56;10295679;28;20034;-77
2023/07/08 21:59:57;;;;;;;0.10;0.10;;;;;;;-145.06;100.00;63404.56;10297930;28;20069;-77
2023/07/08 22:04:57;;;;;;;0.10;0.10;;;;;;;-145.06;100.00;63404.56;10283000;28;20046;-77
2023/07/08 22:09:57;;;;;;;0.10;0.10;;;;;;;-145.06;100.00;63404.56;10302389;28;20043;-77
2023/07/08 22:14:57;;;;;;;0.10;0.10;;;;;;;-145.06;100.00;63404.56;10295872;28;20039;-78
2023/07/08 22:19:58;;;;;;;0.10;0.10;;;;;;;-145.06;100.00;63404.56;10281846;28;20043;-77
2023/07/08 22:24:58;;;;;;;0.00;0.00;;;;;;;-145.06;100.00;63404.56;10282651;28;20035;-77
2023/07/08 22:29:58;;;;;;;0.03;0.03;;;;;;;-145.06;100.00;63404.56;10296816;28;20129;-77
2023/07/08 22:34:59;;;;;;;0.10;0.10;;;;;;;-145.06;100.00;63404.56;10307859;28;20145;-77
2023/07/08 22:39:59;;;;;;;0.10;0.10;;;;;;;-145.06;100.00;63404.56;10294511;28;20431;-77